sensor_id;sensor_type;location;lat;lon;timestamp;P1;durP1;ratioP1;P2;durP2;ratioP2
64457;SDS011;58438;51.200;7.252;2022-09-09T00:02:16;3.72;;;2.20;;
64457;SDS011;58438;51.200;7.252;2022-09-09T00:05:20;3.88;;;2.00;;
64457;SDS011;58438;51.200;7.252;2022-09-09T00:08:14;10.90;;;2.40;;
64457;SDS011;58438;51.200;7.252;2022-09-09T00:11:04;4.20;;;2.22;;
64457;SDS011;58438;51.200;7.252;2022-09-09T00:13:52;4.35;;;1.80;;
64457;SDS011;58438;51.200;7.252;2022-09-09T00:16:42;4.80;;;1.90;;
64457;SDS011;58438;51.200;7.252;2022-09-09T00:19:32;4.30;;;1.80;;
64457;SDS011;58438;51.200;7.252;2022-09-09T00:22:23;6.50;;;1.95;;
64457;SDS011;58438;51.200;7.252;2022-09-09T00:25:12;3.63;;;1.70;;
64457;SDS011;58438;51.200;7.252;2022-09-09T00:28:08;4.05;;;2.28;;
64457;SDS011;58438;51.200;7.252;2022-09-09T00:31:04;7.03;;;2.17;;
64457;SDS011;58438;51.200;7.252;2022-09-09T00:33:57;4.70;;;2.03;;
64457;SDS011;58438;51.200;7.252;2022-09-09T00:36:50;4.53;;;1.77;;
64457;SDS011;58438;51.200;7.252;2022-09-09T00:39:41;5.85;;;2.10;;
64457;SDS011;58438;51.200;7.252;2022-09-09T00:42:33;7.38;;;2.25;;
64457;SDS011;58438;51.200;7.252;2022-09-09T00:48:15;3.35;;;2.15;;
64457;SDS011;58438;51.200;7.252;2022-09-09T00:51:07;3.20;;;1.88;;
64457;SDS011;58438;51.200;7.252;2022-09-09T00:54:03;8.45;;;2.08;;
64457;SDS011;58438;51.200;7.252;2022-09-09T00:57:00;5.90;;;2.28;;
64457;SDS011;58438;51.200;7.252;2022-09-09T00:59:52;5.70;;;2.20;;
64457;SDS011;58438;51.200;7.252;2022-09-09T01:02:49;4.57;;;1.92;;
64457;SDS011;58438;51.200;7.252;2022-09-09T01:05:44;2.67;;;1.85;;
64457;SDS011;58438;51.200;7.252;2022-09-09T01:08:40;4.13;;;2.17;;
64457;SDS011;58438;51.200;7.252;2022-09-09T01:11:33;7.22;;;2.03;;
64457;SDS011;58438;51.200;7.252;2022-09-09T01:14:30;7.40;;;2.40;;
64457;SDS011;58438;51.200;7.252;2022-09-09T01:17:23;6.63;;;1.80;;
64457;SDS011;58438;51.200;7.252;2022-09-09T01:20:14;6.90;;;2.20;;
64457;SDS011;58438;51.200;7.252;2022-09-09T01:23:10;6.63;;;2.10;;
64457;SDS011;58438;51.200;7.252;2022-09-09T01:26:08;3.90;;;2.13;;
64457;SDS011;58438;51.200;7.252;2022-09-09T01:31:52;4.00;;;1.88;;
64457;SDS011;58438;51.200;7.252;2022-09-09T01:34:40;6.32;;;2.25;;
64457;SDS011;58438;51.200;7.252;2022-09-09T01:37:27;5.20;;;1.85;;
64457;SDS011;58438;51.200;7.252;2022-09-09T01:40:14;3.97;;;2.03;;
64457;SDS011;58438;51.200;7.252;2022-09-09T01:43:03;4.00;;;2.08;;
64457;SDS011;58438;51.200;7.252;2022-09-09T01:45:52;4.07;;;1.90;;
64457;SDS011;58438;51.200;7.252;2022-09-09T01:48:41;3.70;;;1.73;;
64457;SDS011;58438;51.200;7.252;2022-09-09T01:51:28;7.15;;;2.25;;
64457;SDS011;58438;51.200;7.252;2022-09-09T01:54:15;3.70;;;2.13;;
64457;SDS011;58438;51.200;7.252;2022-09-09T01:57:05;3.25;;;1.83;;
64457;SDS011;58438;51.200;7.252;2022-09-09T02:00:00;4.20;;;1.90;;
64457;SDS011;58438;51.200;7.252;2022-09-09T02:05:35;5.40;;;2.42;;
64457;SDS011;58438;51.200;7.252;2022-09-09T02:08:23;3.95;;;1.63;;
64457;SDS011;58438;51.200;7.252;2022-09-09T02:11:13;4.40;;;1.70;;
64457;SDS011;58438;51.200;7.252;2022-09-09T02:14:02;3.63;;;1.88;;
64457;SDS011;58438;51.200;7.252;2022-09-09T02:16:54;4.50;;;1.70;;
64457;SDS011;58438;51.200;7.252;2022-09-09T02:19:44;3.60;;;1.70;;
64457;SDS011;58438;51.200;7.252;2022-09-09T02:22:34;2.85;;;2.00;;
64457;SDS011;58438;51.200;7.252;2022-09-09T02:25:24;5.85;;;1.98;;
64457;SDS011;58438;51.200;7.252;2022-09-09T02:28:12;4.53;;;1.90;;
64457;SDS011;58438;51.200;7.252;2022-09-09T02:31:00;3.40;;;2.03;;
64457;SDS011;58438;51.200;7.252;2022-09-09T02:33:50;3.67;;;1.85;;
64457;SDS011;58438;51.200;7.252;2022-09-09T02:36:38;6.00;;;2.20;;
64457;SDS011;58438;51.200;7.252;2022-09-09T02:39:27;6.95;;;2.00;;
64457;SDS011;58438;51.200;7.252;2022-09-09T02:42:14;4.60;;;2.00;;
64457;SDS011;58438;51.200;7.252;2022-09-09T02:45:01;6.43;;;2.20;;
64457;SDS011;58438;51.200;7.252;2022-09-09T02:47:50;3.38;;;2.17;;
64457;SDS011;58438;51.200;7.252;2022-09-09T02:50:40;4.72;;;2.03;;
64457;SDS011;58438;51.200;7.252;2022-09-09T02:53:30;5.35;;;2.33;;
64457;SDS011;58438;51.200;7.252;2022-09-09T02:56:20;4.47;;;1.95;;
64457;SDS011;58438;51.200;7.252;2022-09-09T02:59:08;4.53;;;2.22;;
64457;SDS011;58438;51.200;7.252;2022-09-09T03:01:55;3.83;;;2.08;;
64457;SDS011;58438;51.200;7.252;2022-09-09T03:04:44;5.25;;;2.47;;
64457;SDS011;58438;51.200;7.252;2022-09-09T03:07:38;5.20;;;2.55;;
64457;SDS011;58438;51.200;7.252;2022-09-09T03:10:26;5.15;;;2.28;;
64457;SDS011;58438;51.200;7.252;2022-09-09T03:13:14;12.25;;;3.05;;
64457;SDS011;58438;51.200;7.252;2022-09-09T03:16:01;6.85;;;2.25;;
64457;SDS011;58438;51.200;7.252;2022-09-09T03:18:49;6.97;;;2.90;;
64457;SDS011;58438;51.200;7.252;2022-09-09T03:21:36;7.30;;;2.50;;
64457;SDS011;58438;51.200;7.252;2022-09-09T03:24:24;5.97;;;2.40;;
64457;SDS011;58438;51.200;7.252;2022-09-09T03:27:11;4.07;;;2.70;;
64457;SDS011;58438;51.200;7.252;2022-09-09T03:29:59;5.05;;;2.63;;
64457;SDS011;58438;51.200;7.252;2022-09-09T03:32:49;5.47;;;2.70;;
64457;SDS011;58438;51.200;7.252;2022-09-09T03:35:36;7.40;;;2.47;;
64457;SDS011;58438;51.200;7.252;2022-09-09T03:38:25;7.78;;;2.70;;
64457;SDS011;58438;51.200;7.252;2022-09-09T03:41:15;5.57;;;2.42;;
64457;SDS011;58438;51.200;7.252;2022-09-09T03:44:02;4.75;;;2.67;;
64457;SDS011;58438;51.200;7.252;2022-09-09T03:46:49;7.82;;;3.17;;
64457;SDS011;58438;51.200;7.252;2022-09-09T03:49:36;7.03;;;2.50;;
64457;SDS011;58438;51.200;7.252;2022-09-09T03:52:24;7.10;;;3.53;;
64457;SDS011;58438;51.200;7.252;2022-09-09T03:55:12;7.72;;;2.45;;
64457;SDS011;58438;51.200;7.252;2022-09-09T03:58:01;7.35;;;3.00;;
64457;SDS011;58438;51.200;7.252;2022-09-09T04:00:52;6.93;;;2.83;;
64457;SDS011;58438;51.200;7.252;2022-09-09T04:03:40;6.80;;;2.50;;
64457;SDS011;58438;51.200;7.252;2022-09-09T04:06:28;4.95;;;3.03;;
64457;SDS011;58438;51.200;7.252;2022-09-09T04:09:15;8.55;;;2.63;;
64457;SDS011;58438;51.200;7.252;2022-09-09T04:12:03;5.28;;;3.05;;
64457;SDS011;58438;51.200;7.252;2022-09-09T04:14:53;5.50;;;3.00;;
64457;SDS011;58438;51.200;7.252;2022-09-09T04:17:40;6.10;;;3.00;;
64457;SDS011;58438;51.200;7.252;2022-09-09T04:20:28;6.15;;;2.70;;
64457;SDS011;58438;51.200;7.252;2022-09-09T04:23:16;5.85;;;3.17;;
64457;SDS011;58438;51.200;7.252;2022-09-09T04:26:06;7.72;;;3.03;;
64457;SDS011;58438;51.200;7.252;2022-09-09T04:28:55;5.80;;;2.45;;
64457;SDS011;58438;51.200;7.252;2022-09-09T04:31:44;7.93;;;3.40;;
64457;SDS011;58438;51.200;7.252;2022-09-09T04:34:32;4.60;;;2.35;;
64457;SDS011;58438;51.200;7.252;2022-09-09T04:37:19;5.75;;;2.45;;
64457;SDS011;58438;51.200;7.252;2022-09-09T04:40:07;8.15;;;3.25;;
64457;SDS011;58438;51.200;7.252;2022-09-09T04:42:58;5.50;;;2.53;;
64457;SDS011;58438;51.200;7.252;2022-09-09T04:45:46;8.88;;;3.15;;
64457;SDS011;58438;51.200;7.252;2022-09-09T04:48:35;9.65;;;2.78;;
64457;SDS011;58438;51.200;7.252;2022-09-09T04:51:23;6.40;;;2.30;;
64457;SDS011;58438;51.200;7.252;2022-09-09T04:54:10;5.90;;;2.72;;
64457;SDS011;58438;51.200;7.252;2022-09-09T04:56:58;4.25;;;2.38;;
64457;SDS011;58438;51.200;7.252;2022-09-09T04:59:46;6.03;;;2.90;;
64457;SDS011;58438;51.200;7.252;2022-09-09T05:02:36;4.60;;;2.40;;
64457;SDS011;58438;51.200;7.252;2022-09-09T05:05:25;10.15;;;2.90;;
64457;SDS011;58438;51.200;7.252;2022-09-09T05:08:13;7.53;;;2.97;;
64457;SDS011;58438;51.200;7.252;2022-09-09T05:11:01;7.43;;;3.03;;
64457;SDS011;58438;51.200;7.252;2022-09-09T05:13:49;6.65;;;2.60;;
64457;SDS011;58438;51.200;7.252;2022-09-09T05:16:36;6.18;;;2.67;;
64457;SDS011;58438;51.200;7.252;2022-09-09T05:19:24;5.95;;;2.75;;
64457;SDS011;58438;51.200;7.252;2022-09-09T05:22:14;8.20;;;2.38;;
64457;SDS011;58438;51.200;7.252;2022-09-09T05:25:05;7.43;;;3.08;;
64457;SDS011;58438;51.200;7.252;2022-09-09T05:27:53;7.30;;;2.70;;
64457;SDS011;58438;51.200;7.252;2022-09-09T05:30:40;9.90;;;2.90;;
64457;SDS011;58438;51.200;7.252;2022-09-09T05:33:28;4.90;;;2.78;;
64457;SDS011;58438;51.200;7.252;2022-09-09T05:36:16;10.40;;;2.30;;
64457;SDS011;58438;51.200;7.252;2022-09-09T05:39:05;6.18;;;3.10;;
64457;SDS011;58438;51.200;7.252;2022-09-09T05:41:52;6.95;;;2.75;;
64457;SDS011;58438;51.200;7.252;2022-09-09T05:44:41;8.68;;;2.88;;
64457;SDS011;58438;51.200;7.252;2022-09-09T05:47:30;7.30;;;3.30;;
64457;SDS011;58438;51.200;7.252;2022-09-09T05:50:18;5.65;;;2.65;;
64457;SDS011;58438;51.200;7.252;2022-09-09T05:53:05;7.55;;;3.42;;
64457;SDS011;58438;51.200;7.252;2022-09-09T05:56:00;5.07;;;3.50;;
64457;SDS011;58438;51.200;7.252;2022-09-09T05:58:49;8.60;;;2.70;;
64457;SDS011;58438;51.200;7.252;2022-09-09T06:01:37;9.05;;;3.30;;
64457;SDS011;58438;51.200;7.252;2022-09-09T06:04:28;6.10;;;3.13;;
64457;SDS011;58438;51.200;7.252;2022-09-09T06:07:16;7.28;;;2.80;;
64457;SDS011;58438;51.200;7.252;2022-09-09T06:10:05;9.15;;;3.42;;
64457;SDS011;58438;51.200;7.252;2022-09-09T06:12:54;9.70;;;3.42;;
64457;SDS011;58438;51.200;7.252;2022-09-09T06:15:48;7.25;;;3.08;;
64457;SDS011;58438;51.200;7.252;2022-09-09T06:18:40;6.72;;;3.08;;
64457;SDS011;58438;51.200;7.252;2022-09-09T06:21:28;5.88;;;3.35;;
64457;SDS011;58438;51.200;7.252;2022-09-09T06:24:16;11.60;;;3.42;;
64457;SDS011;58438;51.200;7.252;2022-09-09T06:27:04;6.28;;;3.38;;
64457;SDS011;58438;51.200;7.252;2022-09-09T06:29:54;5.05;;;3.38;;
64457;SDS011;58438;51.200;7.252;2022-09-09T06:32:41;7.35;;;2.78;;
64457;SDS011;58438;51.200;7.252;2022-09-09T06:35:28;5.35;;;2.65;;
64457;SDS011;58438;51.200;7.252;2022-09-09T06:38:17;6.68;;;2.50;;
64457;SDS011;58438;51.200;7.252;2022-09-09T06:41:08;5.80;;;2.88;;
64457;SDS011;58438;51.200;7.252;2022-09-09T06:43:56;5.30;;;3.00;;
64457;SDS011;58438;51.200;7.252;2022-09-09T06:46:46;7.75;;;3.13;;
64457;SDS011;58438;51.200;7.252;2022-09-09T06:49:34;7.80;;;2.90;;
64457;SDS011;58438;51.200;7.252;2022-09-09T06:52:22;5.25;;;3.10;;
64457;SDS011;58438;51.200;7.252;2022-09-09T06:55:10;9.70;;;3.60;;
64457;SDS011;58438;51.200;7.252;2022-09-09T06:57:58;7.30;;;3.38;;
64457;SDS011;58438;51.200;7.252;2022-09-09T07:00:50;10.95;;;3.40;;
64457;SDS011;58438;51.200;7.252;2022-09-09T07:03:40;11.38;;;3.65;;
64457;SDS011;58438;51.200;7.252;2022-09-09T07:06:34;12.25;;;3.72;;
64457;SDS011;58438;51.200;7.252;2022-09-09T07:09:22;6.80;;;3.83;;
64457;SDS011;58438;51.200;7.252;2022-09-09T07:12:10;7.30;;;3.25;;
64457;SDS011;58438;51.200;7.252;2022-09-09T07:14:59;5.13;;;3.65;;
64457;SDS011;58438;51.200;7.252;2022-09-09T07:17:46;9.50;;;3.53;;
64457;SDS011;58438;51.200;7.252;2022-09-09T07:20:40;10.88;;;3.65;;
64457;SDS011;58438;51.200;7.252;2022-09-09T07:23:27;7.35;;;3.60;;
64457;SDS011;58438;51.200;7.252;2022-09-09T07:26:21;3.90;;;2.90;;
64457;SDS011;58438;51.200;7.252;2022-09-09T07:29:08;8.35;;;3.58;;
64457;SDS011;58438;51.200;7.252;2022-09-09T07:32:05;6.97;;;3.03;;
64457;SDS011;58438;51.200;7.252;2022-09-09T07:34:53;24.52;;;4.00;;
64457;SDS011;58438;51.200;7.252;2022-09-09T07:37:42;6.45;;;3.17;;
64457;SDS011;58438;51.200;7.252;2022-09-09T07:40:35;6.25;;;3.45;;
64457;SDS011;58438;51.200;7.252;2022-09-09T07:43:25;8.82;;;3.38;;
64457;SDS011;58438;51.200;7.252;2022-09-09T07:46:13;5.35;;;3.03;;
64457;SDS011;58438;51.200;7.252;2022-09-09T07:49:02;7.38;;;2.88;;
64457;SDS011;58438;51.200;7.252;2022-09-09T07:51:50;8.60;;;2.83;;
64457;SDS011;58438;51.200;7.252;2022-09-09T07:54:39;6.93;;;3.17;;
64457;SDS011;58438;51.200;7.252;2022-09-09T07:57:26;8.80;;;3.38;;
64457;SDS011;58438;51.200;7.252;2022-09-09T08:00:15;9.88;;;2.85;;
64457;SDS011;58438;51.200;7.252;2022-09-09T08:03:05;10.13;;;3.22;;
64457;SDS011;58438;51.200;7.252;2022-09-09T08:05:52;7.05;;;3.05;;
64457;SDS011;58438;51.200;7.252;2022-09-09T08:08:39;6.53;;;2.50;;
64457;SDS011;58438;51.200;7.252;2022-09-09T08:11:29;5.20;;;2.28;;
64457;SDS011;58438;51.200;7.252;2022-09-09T08:14:23;5.25;;;2.53;;
64457;SDS011;58438;51.200;7.252;2022-09-09T08:17:11;7.30;;;2.35;;
64457;SDS011;58438;51.200;7.252;2022-09-09T08:19:58;7.28;;;2.75;;
64457;SDS011;58438;51.200;7.252;2022-09-09T08:22:49;6.93;;;2.38;;
64457;SDS011;58438;51.200;7.252;2022-09-09T08:25:37;8.45;;;2.40;;
64457;SDS011;58438;51.200;7.252;2022-09-09T08:28:26;12.07;;;2.50;;
64457;SDS011;58438;51.200;7.252;2022-09-09T08:31:15;4.82;;;2.10;;
64457;SDS011;58438;51.200;7.252;2022-09-09T08:34:03;5.30;;;2.88;;
64457;SDS011;58438;51.200;7.252;2022-09-09T08:36:50;5.32;;;2.33;;
64457;SDS011;58438;51.200;7.252;2022-09-09T08:39:38;6.63;;;2.67;;
64457;SDS011;58438;51.200;7.252;2022-09-09T08:42:28;7.03;;;2.08;;
64457;SDS011;58438;51.200;7.252;2022-09-09T08:45:22;5.45;;;2.20;;
64457;SDS011;58438;51.200;7.252;2022-09-09T08:48:16;4.88;;;2.10;;
64457;SDS011;58438;51.200;7.252;2022-09-09T08:51:05;11.48;;;2.35;;
64457;SDS011;58438;51.200;7.252;2022-09-09T08:53:54;4.05;;;2.10;;
64457;SDS011;58438;51.200;7.252;2022-09-09T08:56:44;3.60;;;1.92;;
64457;SDS011;58438;51.200;7.252;2022-09-09T08:59:32;3.70;;;1.90;;
64457;SDS011;58438;51.200;7.252;2022-09-09T09:02:24;7.55;;;2.30;;
64457;SDS011;58438;51.200;7.252;2022-09-09T09:05:15;3.95;;;1.80;;
64457;SDS011;58438;51.200;7.252;2022-09-09T09:08:08;6.45;;;1.92;;
64457;SDS011;58438;51.200;7.252;2022-09-09T09:10:58;6.60;;;1.92;;
64457;SDS011;58438;51.200;7.252;2022-09-09T09:13:47;6.53;;;2.15;;
64457;SDS011;58438;51.200;7.252;2022-09-09T09:16:38;3.50;;;1.73;;
64457;SDS011;58438;51.200;7.252;2022-09-09T09:19:32;5.13;;;1.70;;
64457;SDS011;58438;51.200;7.252;2022-09-09T09:22:20;6.38;;;2.40;;
64457;SDS011;58438;51.200;7.252;2022-09-09T09:25:09;8.18;;;2.22;;
64457;SDS011;58438;51.200;7.252;2022-09-09T09:27:59;6.28;;;2.10;;
64457;SDS011;58438;51.200;7.252;2022-09-09T09:30:52;8.93;;;1.70;;
64457;SDS011;58438;51.200;7.252;2022-09-09T09:33:43;11.02;;;1.98;;
64457;SDS011;58438;51.200;7.252;2022-09-09T09:36:38;4.07;;;1.45;;
64457;SDS011;58438;51.200;7.252;2022-09-09T09:39:27;12.25;;;1.88;;
64457;SDS011;58438;51.200;7.252;2022-09-09T09:42:35;8.20;;;2.05;;
64457;SDS011;58438;51.200;7.252;2022-09-09T09:45:29;5.22;;;1.48;;
64457;SDS011;58438;51.200;7.252;2022-09-09T09:48:18;5.57;;;1.75;;
64457;SDS011;58438;51.200;7.252;2022-09-09T09:51:08;6.20;;;2.40;;
64457;SDS011;58438;51.200;7.252;2022-09-09T09:54:05;10.77;;;3.60;;
64457;SDS011;58438;51.200;7.252;2022-09-09T09:56:55;5.60;;;1.90;;
64457;SDS011;58438;51.200;7.252;2022-09-09T09:59:43;10.15;;;1.80;;
64457;SDS011;58438;51.200;7.252;2022-09-09T10:02:31;3.42;;;1.50;;
64457;SDS011;58438;51.200;7.252;2022-09-09T10:05:19;2.35;;;1.40;;
64457;SDS011;58438;51.200;7.252;2022-09-09T10:08:12;4.53;;;1.77;;
64457;SDS011;58438;51.200;7.252;2022-09-09T10:11:04;3.95;;;1.70;;
64457;SDS011;58438;51.200;7.252;2022-09-09T10:13:57;3.42;;;1.30;;
64457;SDS011;58438;51.200;7.252;2022-09-09T10:16:48;4.03;;;1.80;;
64457;SDS011;58438;51.200;7.252;2022-09-09T10:19:36;4.32;;;1.88;;
64457;SDS011;58438;51.200;7.252;2022-09-09T10:22:25;6.68;;;1.63;;
64457;SDS011;58438;51.200;7.252;2022-09-09T10:25:16;4.63;;;1.48;;
64457;SDS011;58438;51.200;7.252;2022-09-09T10:28:14;5.00;;;2.15;;
64457;SDS011;58438;51.200;7.252;2022-09-09T10:31:05;4.78;;;1.50;;
64457;SDS011;58438;51.200;7.252;2022-09-09T10:33:59;5.13;;;1.58;;
64457;SDS011;58438;51.200;7.252;2022-09-09T10:36:50;5.78;;;1.35;;
64457;SDS011;58438;51.200;7.252;2022-09-09T10:39:38;2.78;;;1.25;;
64457;SDS011;58438;51.200;7.252;2022-09-09T10:42:29;5.00;;;1.70;;
64457;SDS011;58438;51.200;7.252;2022-09-09T10:45:20;7.55;;;2.45;;
64457;SDS011;58438;51.200;7.252;2022-09-09T10:48:16;3.58;;;1.20;;
64457;SDS011;58438;51.200;7.252;2022-09-09T10:51:10;3.28;;;1.30;;
64457;SDS011;58438;51.200;7.252;2022-09-09T10:54:06;6.65;;;1.63;;
64457;SDS011;58438;51.200;7.252;2022-09-09T10:56:55;4.18;;;1.58;;
64457;SDS011;58438;51.200;7.252;2022-09-09T10:59:46;4.55;;;1.50;;
64457;SDS011;58438;51.200;7.252;2022-09-09T11:02:36;4.05;;;1.20;;
64457;SDS011;58438;51.200;7.252;2022-09-09T11:05:28;2.00;;;1.08;;
64457;SDS011;58438;51.200;7.252;2022-09-09T11:08:18;2.85;;;1.00;;
64457;SDS011;58438;51.200;7.252;2022-09-09T11:11:12;4.23;;;1.20;;
64457;SDS011;58438;51.200;7.252;2022-09-09T11:14:01;5.00;;;1.90;;
64457;SDS011;58438;51.200;7.252;2022-09-09T11:16:49;4.55;;;1.20;;
64457;SDS011;58438;51.200;7.252;2022-09-09T11:19:39;8.50;;;1.58;;
64457;SDS011;58438;51.200;7.252;2022-09-09T11:22:29;7.07;;;1.60;;
64457;SDS011;58438;51.200;7.252;2022-09-09T11:25:20;2.80;;;1.33;;
64457;SDS011;58438;51.200;7.252;2022-09-09T11:28:14;4.50;;;1.45;;
64457;SDS011;58438;51.200;7.252;2022-09-09T11:31:07;5.13;;;1.88;;
64457;SDS011;58438;51.200;7.252;2022-09-09T11:34:07;2.08;;;1.40;;
64457;SDS011;58438;51.200;7.252;2022-09-09T11:37:04;2.75;;;1.30;;
64457;SDS011;58438;51.200;7.252;2022-09-09T11:39:57;4.45;;;1.30;;
64457;SDS011;58438;51.200;7.252;2022-09-09T11:42:48;2.92;;;1.27;;
64457;SDS011;58438;51.200;7.252;2022-09-09T11:45:36;1.60;;;1.20;;
64457;SDS011;58438;51.200;7.252;2022-09-09T11:48:26;3.55;;;1.35;;
64457;SDS011;58438;51.200;7.252;2022-09-09T11:51:25;3.63;;;1.45;;
64457;SDS011;58438;51.200;7.252;2022-09-09T11:54:27;5.40;;;3.30;;
64457;SDS011;58438;51.200;7.252;2022-09-09T11:57:20;10.27;;;1.65;;
64457;SDS011;58438;51.200;7.252;2022-09-09T12:06:15;3.10;;;1.25;;
64457;SDS011;58438;51.200;7.252;2022-09-09T12:09:05;1.85;;;1.08;;
64457;SDS011;58438;51.200;7.252;2022-09-09T12:12:05;3.03;;;1.30;;
64457;SDS011;58438;51.200;7.252;2022-09-09T12:14:57;3.33;;;1.67;;
64457;SDS011;58438;51.200;7.252;2022-09-09T12:17:45;2.85;;;0.90;;
64457;SDS011;58438;51.200;7.252;2022-09-09T12:20:33;3.20;;;1.10;;
64457;SDS011;58438;51.200;7.252;2022-09-09T12:23:31;2.70;;;0.93;;
64457;SDS011;58438;51.200;7.252;2022-09-09T12:26:27;5.03;;;1.20;;
64457;SDS011;58438;51.200;7.252;2022-09-09T12:29:21;2.75;;;1.00;;
64457;SDS011;58438;51.200;7.252;2022-09-09T12:32:10;2.78;;;1.00;;
64457;SDS011;58438;51.200;7.252;2022-09-09T12:34:58;3.70;;;1.40;;
64457;SDS011;58438;51.200;7.252;2022-09-09T12:37:48;4.63;;;0.93;;
64457;SDS011;58438;51.200;7.252;2022-09-09T12:40:39;3.63;;;1.10;;
64457;SDS011;58438;51.200;7.252;2022-09-09T12:43:27;2.50;;;1.00;;
64457;SDS011;58438;51.200;7.252;2022-09-09T12:46:20;3.42;;;1.10;;
64457;SDS011;58438;51.200;7.252;2022-09-09T12:49:20;1.83;;;1.20;;
64457;SDS011;58438;51.200;7.252;2022-09-09T12:52:13;3.30;;;1.48;;
64457;SDS011;58438;51.200;7.252;2022-09-09T12:55:02;6.95;;;2.80;;
64457;SDS011;58438;51.200;7.252;2022-09-09T12:57:51;14.80;;;7.90;;
64457;SDS011;58438;51.200;7.252;2022-09-09T13:00:38;9.98;;;6.03;;
64457;SDS011;58438;51.200;7.252;2022-09-09T13:03:42;3.70;;;1.95;;
64457;SDS011;58438;51.200;7.252;2022-09-09T13:06:31;2.70;;;1.38;;
64457;SDS011;58438;51.200;7.252;2022-09-09T13:09:19;4.30;;;1.50;;
64457;SDS011;58438;51.200;7.252;2022-09-09T13:12:07;3.80;;;1.35;;
64457;SDS011;58438;51.200;7.252;2022-09-09T13:14:59;2.25;;;1.30;;
64457;SDS011;58438;51.200;7.252;2022-09-09T13:17:51;3.65;;;1.55;;
64457;SDS011;58438;51.200;7.252;2022-09-09T13:20:44;3.42;;;1.10;;
64457;SDS011;58438;51.200;7.252;2022-09-09T13:23:32;4.45;;;1.30;;
64457;SDS011;58438;51.200;7.252;2022-09-09T13:26:21;10.10;;;5.03;;
64457;SDS011;58438;51.200;7.252;2022-09-09T13:29:15;10.07;;;4.68;;
64457;SDS011;58438;51.200;7.252;2022-09-09T13:32:04;6.88;;;3.47;;
64457;SDS011;58438;51.200;7.252;2022-09-09T13:34:54;6.82;;;3.80;;
64457;SDS011;58438;51.200;7.252;2022-09-09T13:37:43;8.93;;;4.18;;
64457;SDS011;58438;51.200;7.252;2022-09-09T13:40:30;5.38;;;3.13;;
64457;SDS011;58438;51.200;7.252;2022-09-09T13:43:20;6.72;;;4.22;;
64457;SDS011;58438;51.200;7.252;2022-09-09T13:46:22;7.13;;;2.92;;
64457;SDS011;58438;51.200;7.252;2022-09-09T13:49:19;4.18;;;2.13;;
64457;SDS011;58438;51.200;7.252;2022-09-09T13:52:09;4.85;;;3.25;;
64457;SDS011;58438;51.200;7.252;2022-09-09T13:54:58;6.32;;;3.35;;
64457;SDS011;58438;51.200;7.252;2022-09-09T13:57:52;3.13;;;2.03;;
64457;SDS011;58438;51.200;7.252;2022-09-09T14:00:40;6.75;;;3.25;;
64457;SDS011;58438;51.200;7.252;2022-09-09T14:03:27;6.25;;;4.22;;
64457;SDS011;58438;51.200;7.252;2022-09-09T14:06:14;6.40;;;2.85;;
64457;SDS011;58438;51.200;7.252;2022-09-09T14:09:01;6.38;;;2.28;;
64457;SDS011;58438;51.200;7.252;2022-09-09T14:11:50;4.15;;;2.40;;
64457;SDS011;58438;51.200;7.252;2022-09-09T14:14:38;5.63;;;2.20;;
64457;SDS011;58438;51.200;7.252;2022-09-09T14:17:25;7.10;;;3.00;;
64457;SDS011;58438;51.200;7.252;2022-09-09T14:20:17;9.75;;;3.13;;
64457;SDS011;58438;51.200;7.252;2022-09-09T14:23:05;3.03;;;1.55;;
64457;SDS011;58438;51.200;7.252;2022-09-09T14:25:53;3.92;;;1.83;;
64457;SDS011;58438;51.200;7.252;2022-09-09T14:28:42;3.97;;;1.88;;
64457;SDS011;58438;51.200;7.252;2022-09-09T14:31:40;3.92;;;2.10;;
64457;SDS011;58438;51.200;7.252;2022-09-09T14:34:27;9.70;;;2.25;;
64457;SDS011;58438;51.200;7.252;2022-09-09T14:37:15;3.63;;;1.75;;
64457;SDS011;58438;51.200;7.252;2022-09-09T14:40:03;4.93;;;1.60;;
64457;SDS011;58438;51.200;7.252;2022-09-09T14:42:52;6.68;;;2.17;;
64457;SDS011;58438;51.200;7.252;2022-09-09T14:45:41;6.35;;;2.10;;
64457;SDS011;58438;51.200;7.252;2022-09-09T14:48:40;8.75;;;3.08;;
64457;SDS011;58438;51.200;7.252;2022-09-09T14:51:31;10.82;;;3.78;;
64457;SDS011;58438;51.200;7.252;2022-09-09T14:54:20;3.88;;;2.00;;
64457;SDS011;58438;51.200;7.252;2022-09-09T14:57:09;7.28;;;2.88;;
64457;SDS011;58438;51.200;7.252;2022-09-09T14:59:57;10.20;;;3.08;;
64457;SDS011;58438;51.200;7.252;2022-09-09T15:02:46;6.43;;;2.65;;
64457;SDS011;58438;51.200;7.252;2022-09-09T15:05:36;10.13;;;2.30;;
64457;SDS011;58438;51.200;7.252;2022-09-09T15:08:24;3.17;;;2.10;;
64457;SDS011;58438;51.200;7.252;2022-09-09T15:11:12;4.28;;;1.92;;
64457;SDS011;58438;51.200;7.252;2022-09-09T15:14:00;2.85;;;1.90;;
64457;SDS011;58438;51.200;7.252;2022-09-09T15:16:48;4.55;;;1.52;;
64457;SDS011;58438;51.200;7.252;2022-09-09T15:19:37;3.45;;;1.50;;
64457;SDS011;58438;51.200;7.252;2022-09-09T15:22:25;5.63;;;1.77;;
64457;SDS011;58438;51.200;7.252;2022-09-09T15:25:12;4.90;;;1.85;;
64457;SDS011;58438;51.200;7.252;2022-09-09T15:28:00;4.85;;;2.22;;
64457;SDS011;58438;51.200;7.252;2022-09-09T15:30:47;3.70;;;2.20;;
64457;SDS011;58438;51.200;7.252;2022-09-09T15:33:40;3.47;;;1.80;;
64457;SDS011;58438;51.200;7.252;2022-09-09T15:36:31;5.32;;;1.58;;
64457;SDS011;58438;51.200;7.252;2022-09-09T15:39:19;4.95;;;1.50;;
64457;SDS011;58438;51.200;7.252;2022-09-09T15:42:08;3.38;;;1.65;;
64457;SDS011;58438;51.200;7.252;2022-09-09T15:44:59;3.97;;;1.48;;
64457;SDS011;58438;51.200;7.252;2022-09-09T15:47:47;4.50;;;1.33;;
64457;SDS011;58438;51.200;7.252;2022-09-09T15:50:38;5.25;;;1.63;;
64457;SDS011;58438;51.200;7.252;2022-09-09T15:53:28;4.53;;;1.65;;
64457;SDS011;58438;51.200;7.252;2022-09-09T15:56:15;2.95;;;1.80;;
64457;SDS011;58438;51.200;7.252;2022-09-09T15:59:05;2.95;;;1.60;;
64457;SDS011;58438;51.200;7.252;2022-09-09T16:01:52;6.63;;;2.15;;
64457;SDS011;58438;51.200;7.252;2022-09-09T16:04:40;2.40;;;1.52;;
64457;SDS011;58438;51.200;7.252;2022-09-09T16:07:29;4.18;;;1.90;;
64457;SDS011;58438;51.200;7.252;2022-09-09T16:10:18;2.63;;;1.65;;
64457;SDS011;58438;51.200;7.252;2022-09-09T16:13:06;3.28;;;2.08;;
64457;SDS011;58438;51.200;7.252;2022-09-09T16:15:54;4.53;;;1.80;;
64457;SDS011;58438;51.200;7.252;2022-09-09T16:18:42;5.90;;;1.75;;
64457;SDS011;58438;51.200;7.252;2022-09-09T16:21:31;7.38;;;2.42;;
64457;SDS011;58438;51.200;7.252;2022-09-09T16:24:23;7.22;;;2.00;;
64457;SDS011;58438;51.200;7.252;2022-09-09T16:27:17;3.55;;;1.50;;
64457;SDS011;58438;51.200;7.252;2022-09-09T16:30:13;3.88;;;1.60;;
64457;SDS011;58438;51.200;7.252;2022-09-09T16:33:03;4.53;;;1.90;;
64457;SDS011;58438;51.200;7.252;2022-09-09T16:35:59;6.20;;;1.92;;
64457;SDS011;58438;51.200;7.252;2022-09-09T16:38:58;5.82;;;1.63;;
64457;SDS011;58438;51.200;7.252;2022-09-09T16:42:52;3.95;;;2.10;;
64457;SDS011;58438;51.200;7.252;2022-09-09T16:45:44;4.93;;;1.95;;
64457;SDS011;58438;51.200;7.252;2022-09-09T16:48:53;5.05;;;1.77;;
64457;SDS011;58438;51.200;7.252;2022-09-09T16:51:52;5.40;;;2.20;;
64457;SDS011;58438;51.200;7.252;2022-09-09T16:54:42;5.10;;;2.38;;
64457;SDS011;58438;51.200;7.252;2022-09-09T16:57:31;3.28;;;1.80;;
64457;SDS011;58438;51.200;7.252;2022-09-09T17:00:33;4.32;;;2.15;;
64457;SDS011;58438;51.200;7.252;2022-09-09T17:03:22;6.68;;;2.72;;
64457;SDS011;58438;51.200;7.252;2022-09-09T17:06:15;3.08;;;1.77;;
64457;SDS011;58438;51.200;7.252;2022-09-09T17:09:19;3.28;;;1.90;;
64457;SDS011;58438;51.200;7.252;2022-09-09T17:12:10;3.15;;;1.80;;
64457;SDS011;58438;51.200;7.252;2022-09-09T17:14:58;3.83;;;1.30;;
64457;SDS011;58438;51.200;7.252;2022-09-09T17:17:46;3.88;;;1.55;;
64457;SDS011;58438;51.200;7.252;2022-09-09T17:20:37;2.63;;;1.30;;
64457;SDS011;58438;51.200;7.252;2022-09-09T17:23:35;2.95;;;1.67;;